sensor_id;sensor_type;location;lat;lon;timestamp;temperature;humidity
68485;DHT22;55472;50.060;21.960;2024-03-25T00:01:23;1.80;99.90
68485;DHT22;55472;50.060;21.960;2024-03-25T00:03:50;1.90;99.90
68485;DHT22;55472;50.060;21.960;2024-03-25T00:06:16;1.90;99.90
68485;DHT22;55472;50.060;21.960;2024-03-25T00:08:42;1.90;99.90
68485;DHT22;55472;50.060;21.960;2024-03-25T00:11:08;1.90;99.90
68485;DHT22;55472;50.060;21.960;2024-03-25T00:13:34;1.80;99.90
68485;DHT22;55472;50.060;21.960;2024-03-25T00:16:01;1.80;99.90
68485;DHT22;55472;50.060;21.960;2024-03-25T00:18:27;1.80;99.90
68485;DHT22;55472;50.060;21.960;2024-03-25T00:20:53;1.80;99.90
68485;DHT22;55472;50.060;21.960;2024-03-25T00:23:19;1.80;99.90
68485;DHT22;55472;50.060;21.960;2024-03-25T00:25:46;1.80;99.90
68485;DHT22;55472;50.060;21.960;2024-03-25T00:28:12;1.80;99.90
68485;DHT22;55472;50.060;21.960;2024-03-25T00:30:39;1.80;99.90
68485;DHT22;55472;50.060;21.960;2024-03-25T00:33:05;1.80;99.90
68485;DHT22;55472;50.060;21.960;2024-03-25T00:35:33;1.80;99.90
68485;DHT22;55472;50.060;21.960;2024-03-25T00:37:59;1.80;99.90
68485;DHT22;55472;50.060;21.960;2024-03-25T00:40:26;1.90;99.90
68485;DHT22;55472;50.060;21.960;2024-03-25T00:42:52;1.90;99.90
68485;DHT22;55472;50.060;21.960;2024-03-25T00:45:18;1.90;99.90
68485;DHT22;55472;50.060;21.960;2024-03-25T00:47:44;1.90;99.90
68485;DHT22;55472;50.060;21.960;2024-03-25T00:50:11;1.90;99.90
68485;DHT22;55472;50.060;21.960;2024-03-25T00:52:37;1.90;99.90
68485;DHT22;55472;50.060;21.960;2024-03-25T00:55:03;1.90;99.90
68485;DHT22;55472;50.060;21.960;2024-03-25T00:57:29;1.90;99.90
68485;DHT22;55472;50.060;21.960;2024-03-25T00:59:56;1.90;99.90
68485;DHT22;55472;50.060;21.960;2024-03-25T01:02:22;1.90;99.90
68485;DHT22;55472;50.060;21.960;2024-03-25T01:04:48;2.00;99.90
68485;DHT22;55472;50.060;21.960;2024-03-25T01:07:14;2.00;99.90
68485;DHT22;55472;50.060;21.960;2024-03-25T01:09:40;2.00;99.90
68485;DHT22;55472;50.060;21.960;2024-03-25T01:12:06;2.00;99.90
68485;DHT22;55472;50.060;21.960;2024-03-25T01:14:33;1.90;99.90
68485;DHT22;55472;50.060;21.960;2024-03-25T01:16:58;1.90;99.90
68485;DHT22;55472;50.060;21.960;2024-03-25T01:19:25;1.80;99.90
68485;DHT22;55472;50.060;21.960;2024-03-25T01:21:51;1.90;99.90
68485;DHT22;55472;50.060;21.960;2024-03-25T01:24:17;1.90;99.90
68485;DHT22;55472;50.060;21.960;2024-03-25T01:26:43;1.80;99.90
68485;DHT22;55472;50.060;21.960;2024-03-25T01:29:10;1.80;99.90
68485;DHT22;55472;50.060;21.960;2024-03-25T01:31:36;1.80;99.90
68485;DHT22;55472;50.060;21.960;2024-03-25T01:34:02;1.80;99.90
68485;DHT22;55472;50.060;21.960;2024-03-25T01:36:28;1.70;99.90
68485;DHT22;55472;50.060;21.960;2024-03-25T01:38:54;1.70;99.90
68485;DHT22;55472;50.060;21.960;2024-03-25T01:41:21;1.70;99.90
68485;DHT22;55472;50.060;21.960;2024-03-25T01:43:51;1.70;99.90
68485;DHT22;55472;50.060;21.960;2024-03-25T01:46:17;1.70;99.90
68485;DHT22;55472;50.060;21.960;2024-03-25T01:48:45;1.70;99.90
68485;DHT22;55472;50.060;21.960;2024-03-25T01:51:13;1.70;99.90
68485;DHT22;55472;50.060;21.960;2024-03-25T01:53:41;1.70;99.90
68485;DHT22;55472;50.060;21.960;2024-03-25T01:56:08;1.70;99.90
68485;DHT22;55472;50.060;21.960;2024-03-25T01:58:35;1.70;99.90
68485;DHT22;55472;50.060;21.960;2024-03-25T02:01:03;1.70;99.90
68485;DHT22;55472;50.060;21.960;2024-03-25T02:03:30;1.70;99.90
68485;DHT22;55472;50.060;21.960;2024-03-25T02:05:59;1.80;99.90
68485;DHT22;55472;50.060;21.960;2024-03-25T02:08:28;1.70;99.90
68485;DHT22;55472;50.060;21.960;2024-03-25T02:10:58;1.80;99.90
68485;DHT22;55472;50.060;21.960;2024-03-25T02:13:25;1.70;99.90
68485;DHT22;55472;50.060;21.960;2024-03-25T02:15:51;1.70;99.90
68485;DHT22;55472;50.060;21.960;2024-03-25T02:18:18;1.70;99.90
68485;DHT22;55472;50.060;21.960;2024-03-25T02:20:45;1.70;99.90
68485;DHT22;55472;50.060;21.960;2024-03-25T02:23:14;1.70;99.90
68485;DHT22;55472;50.060;21.960;2024-03-25T02:25:42;1.70;99.90
68485;DHT22;55472;50.060;21.960;2024-03-25T02:28:09;1.70;99.90
68485;DHT22;55472;50.060;21.960;2024-03-25T02:30:35;1.60;99.90
68485;DHT22;55472;50.060;21.960;2024-03-25T02:33:03;1.60;99.90
68485;DHT22;55472;50.060;21.960;2024-03-25T02:35:29;1.60;99.90
68485;DHT22;55472;50.060;21.960;2024-03-25T02:37:56;1.60;99.90
68485;DHT22;55472;50.060;21.960;2024-03-25T02:40:22;1.60;99.90
68485;DHT22;55472;50.060;21.960;2024-03-25T02:42:49;1.60;99.90
68485;DHT22;55472;50.060;21.960;2024-03-25T02:45:15;1.60;99.90
68485;DHT22;55472;50.060;21.960;2024-03-25T02:47:43;1.70;99.90
68485;DHT22;55472;50.060;21.960;2024-03-25T02:50:09;1.80;99.90
68485;DHT22;55472;50.060;21.960;2024-03-25T02:52:36;1.80;99.90
68485;DHT22;55472;50.060;21.960;2024-03-25T02:55:02;1.80;99.90
68485;DHT22;55472;50.060;21.960;2024-03-25T02:57:28;1.80;99.90
68485;DHT22;55472;50.060;21.960;2024-03-25T02:59:54;1.80;99.90
68485;DHT22;55472;50.060;21.960;2024-03-25T03:02:21;1.80;99.90
68485;DHT22;55472;50.060;21.960;2024-03-25T03:04:46;1.80;99.90
68485;DHT22;55472;50.060;21.960;2024-03-25T03:07:13;1.80;99.90
68485;DHT22;55472;50.060;21.960;2024-03-25T03:09:39;1.80;99.90
68485;DHT22;55472;50.060;21.960;2024-03-25T03:12:06;1.80;99.90
68485;DHT22;55472;50.060;21.960;2024-03-25T03:14:33;1.80;99.90
68485;DHT22;55472;50.060;21.960;2024-03-25T03:16:59;1.90;99.90
68485;DHT22;55472;50.060;21.960;2024-03-25T03:19:31;1.80;99.90
68485;DHT22;55472;50.060;21.960;2024-03-25T03:21:57;1.80;99.90
68485;DHT22;55472;50.060;21.960;2024-03-25T03:24:23;1.90;99.90
68485;DHT22;55472;50.060;21.960;2024-03-25T03:26:50;1.90;99.90
68485;DHT22;55472;50.060;21.960;2024-03-25T03:29:16;1.90;99.90
68485;DHT22;55472;50.060;21.960;2024-03-25T03:31:43;1.90;99.90
68485;DHT22;55472;50.060;21.960;2024-03-25T03:34:10;1.90;99.90
68485;DHT22;55472;50.060;21.960;2024-03-25T03:36:36;1.90;99.90
68485;DHT22;55472;50.060;21.960;2024-03-25T03:39:02;1.90;99.90
68485;DHT22;55472;50.060;21.960;2024-03-25T03:41:29;1.90;99.90
68485;DHT22;55472;50.060;21.960;2024-03-25T03:43:55;1.90;99.90
68485;DHT22;55472;50.060;21.960;2024-03-25T03:46:21;1.90;99.90
68485;DHT22;55472;50.060;21.960;2024-03-25T03:48:47;1.80;99.90
68485;DHT22;55472;50.060;21.960;2024-03-25T03:51:13;1.90;99.90
68485;DHT22;55472;50.060;21.960;2024-03-25T03:53:40;1.80;99.90
68485;DHT22;55472;50.060;21.960;2024-03-25T03:56:06;1.90;99.90
68485;DHT22;55472;50.060;21.960;2024-03-25T03:58:33;1.90;99.90
68485;DHT22;55472;50.060;21.960;2024-03-25T04:01:00;1.80;99.90
68485;DHT22;55472;50.060;21.960;2024-03-25T04:03:26;1.80;99.90
68485;DHT22;55472;50.060;21.960;2024-03-25T04:05:53;1.80;99.90
68485;DHT22;55472;50.060;21.960;2024-03-25T04:08:19;1.80;99.90
68485;DHT22;55472;50.060;21.960;2024-03-25T04:10:45;1.80;99.90
68485;DHT22;55472;50.060;21.960;2024-03-25T04:13:12;1.70;99.90
68485;DHT22;55472;50.060;21.960;2024-03-25T04:15:39;1.70;99.90
68485;DHT22;55472;50.060;21.960;2024-03-25T04:18:08;1.70;99.90
68485;DHT22;55472;50.060;21.960;2024-03-25T04:20:39;1.70;99.90
68485;DHT22;55472;50.060;21.960;2024-03-25T04:23:06;1.70;99.90
68485;DHT22;55472;50.060;21.960;2024-03-25T04:25:34;1.70;99.90
68485;DHT22;55472;50.060;21.960;2024-03-25T04:28:00;1.70;99.90
68485;DHT22;55472;50.060;21.960;2024-03-25T04:30:27;1.70;99.90
68485;DHT22;55472;50.060;21.960;2024-03-25T04:32:53;1.60;99.90
68485;DHT22;55472;50.060;21.960;2024-03-25T04:35:20;1.60;99.90
68485;DHT22;55472;50.060;21.960;2024-03-25T04:37:46;1.60;99.90
68485;DHT22;55472;50.060;21.960;2024-03-25T04:40:13;1.60;99.90
68485;DHT22;55472;50.060;21.960;2024-03-25T04:42:40;1.60;99.90
68485;DHT22;55472;50.060;21.960;2024-03-25T04:45:07;1.70;99.90
68485;DHT22;55472;50.060;21.960;2024-03-25T04:47:33;1.70;99.90
68485;DHT22;55472;50.060;21.960;2024-03-25T04:50:00;1.70;99.90
68485;DHT22;55472;50.060;21.960;2024-03-25T04:52:28;1.70;99.90
68485;DHT22;55472;50.060;21.960;2024-03-25T04:54:54;1.70;99.90
68485;DHT22;55472;50.060;21.960;2024-03-25T04:57:20;1.70;99.90
68485;DHT22;55472;50.060;21.960;2024-03-25T04:59:47;1.70;99.90
68485;DHT22;55472;50.060;21.960;2024-03-25T05:02:13;1.80;99.90
68485;DHT22;55472;50.060;21.960;2024-03-25T05:04:40;1.80;99.90
68485;DHT22;55472;50.060;21.960;2024-03-25T05:07:06;1.80;99.90
68485;DHT22;55472;50.060;21.960;2024-03-25T05:09:32;1.80;99.90
68485;DHT22;55472;50.060;21.960;2024-03-25T05:11:58;1.90;99.90
68485;DHT22;55472;50.060;21.960;2024-03-25T05:14:25;1.90;99.90
68485;DHT22;55472;50.060;21.960;2024-03-25T05:16:51;2.00;99.90
68485;DHT22;55472;50.060;21.960;2024-03-25T05:19:18;2.00;99.90
68485;DHT22;55472;50.060;21.960;2024-03-25T05:21:45;2.00;99.90
68485;DHT22;55472;50.060;21.960;2024-03-25T05:24:11;2.00;99.90
68485;DHT22;55472;50.060;21.960;2024-03-25T05:26:37;2.00;99.90
68485;DHT22;55472;50.060;21.960;2024-03-25T05:29:03;2.10;99.90
68485;DHT22;55472;50.060;21.960;2024-03-25T05:31:29;2.10;99.90
68485;DHT22;55472;50.060;21.960;2024-03-25T05:33:56;2.10;99.90
68485;DHT22;55472;50.060;21.960;2024-03-25T05:36:23;2.10;99.90
68485;DHT22;55472;50.060;21.960;2024-03-25T05:38:49;2.10;99.70
68485;DHT22;55472;50.060;21.960;2024-03-25T05:41:15;2.10;99.90
68485;DHT22;55472;50.060;21.960;2024-03-25T05:43:41;2.20;99.90
68485;DHT22;55472;50.060;21.960;2024-03-25T05:46:07;2.20;99.90
68485;DHT22;55472;50.060;21.960;2024-03-25T05:48:33;2.30;99.90
68485;DHT22;55472;50.060;21.960;2024-03-25T05:51:06;2.30;99.80
68485;DHT22;55472;50.060;21.960;2024-03-25T05:53:35;2.40;99.80
68485;DHT22;55472;50.060;21.960;2024-03-25T05:56:02;2.40;99.20
68485;DHT22;55472;50.060;21.960;2024-03-25T05:58:28;2.40;99.40
68485;DHT22;55472;50.060;21.960;2024-03-25T06:00:54;2.50;99.70
68485;DHT22;55472;50.060;21.960;2024-03-25T06:03:21;2.50;99.90
68485;DHT22;55472;50.060;21.960;2024-03-25T06:05:48;2.60;99.70
68485;DHT22;55472;50.060;21.960;2024-03-25T06:08:14;2.60;99.30
68485;DHT22;55472;50.060;21.960;2024-03-25T06:11:00;2.70;98.80
68485;DHT22;55472;50.060;21.960;2024-03-25T06:13:27;2.70;98.60
68485;DHT22;55472;50.060;21.960;2024-03-25T06:15:53;2.80;98.70
68485;DHT22;55472;50.060;21.960;2024-03-25T06:18:19;2.80;98.50
68485;DHT22;55472;50.060;21.960;2024-03-25T06:20:46;2.90;98.50
68485;DHT22;55472;50.060;21.960;2024-03-25T06:23:25;2.90;98.50
68485;DHT22;55472;50.060;21.960;2024-03-25T06:25:53;3.00;98.00
68485;DHT22;55472;50.060;21.960;2024-03-25T06:28:20;3.10;97.90
68485;DHT22;55472;50.060;21.960;2024-03-25T06:30:47;3.20;97.90
68485;DHT22;55472;50.060;21.960;2024-03-25T06:33:32;3.20;97.50
68485;DHT22;55472;50.060;21.960;2024-03-25T06:36:18;3.30;97.10
68485;DHT22;55472;50.060;21.960;2024-03-25T06:38:44;3.40;96.50
68485;DHT22;55472;50.060;21.960;2024-03-25T06:41:11;3.50;95.90
68485;DHT22;55472;50.060;21.960;2024-03-25T06:43:37;3.60;94.40
68485;DHT22;55472;50.060;21.960;2024-03-25T06:46:05;3.70;94.20
68485;DHT22;55472;50.060;21.960;2024-03-25T06:48:34;3.80;93.10
68485;DHT22;55472;50.060;21.960;2024-03-25T06:51:01;3.80;92.90
68485;DHT22;55472;50.060;21.960;2024-03-25T06:53:30;3.90;92.40
68485;DHT22;55472;50.060;21.960;2024-03-25T06:56:00;4.00;92.10
68485;DHT22;55472;50.060;21.960;2024-03-25T06:58:29;4.10;91.90
68485;DHT22;55472;50.060;21.960;2024-03-25T07:00:56;4.20;91.40
68485;DHT22;55472;50.060;21.960;2024-03-25T07:03:29;4.30;90.70
68485;DHT22;55472;50.060;21.960;2024-03-25T07:05:55;4.50;90.20
68485;DHT22;55472;50.060;21.960;2024-03-25T07:08:22;4.50;88.90
68485;DHT22;55472;50.060;21.960;2024-03-25T07:10:49;4.60;89.00
68485;DHT22;55472;50.060;21.960;2024-03-25T07:13:15;4.80;88.70
68485;DHT22;55472;50.060;21.960;2024-03-25T07:15:43;4.90;87.30
68485;DHT22;55472;50.060;21.960;2024-03-25T07:18:09;5.00;86.90
68485;DHT22;55472;50.060;21.960;2024-03-25T07:20:40;5.10;86.10
68485;DHT22;55472;50.060;21.960;2024-03-25T07:23:06;5.20;86.00
68485;DHT22;55472;50.060;21.960;2024-03-25T07:25:32;5.20;85.40
68485;DHT22;55472;50.060;21.960;2024-03-25T07:27:59;5.20;85.30
68485;DHT22;55472;50.060;21.960;2024-03-25T07:30:26;5.20;85.20
68485;DHT22;55472;50.060;21.960;2024-03-25T07:32:56;5.10;85.70
68485;DHT22;55472;50.060;21.960;2024-03-25T07:35:22;5.20;86.20
68485;DHT22;55472;50.060;21.960;2024-03-25T07:50:10;7.20;82.90
68485;DHT22;55472;50.060;21.960;2024-03-25T07:52:36;7.10;82.80
68485;DHT22;55472;50.060;21.960;2024-03-25T07:55:07;7.30;79.80
68485;DHT22;55472;50.060;21.960;2024-03-25T07:57:33;7.70;79.50
68485;DHT22;55472;50.060;21.960;2024-03-25T08:00:00;8.00;78.50
68485;DHT22;55472;50.060;21.960;2024-03-25T08:02:26;8.40;78.30
68485;DHT22;55472;50.060;21.960;2024-03-25T08:04:52;8.70;74.30
68485;DHT22;55472;50.060;21.960;2024-03-25T08:07:18;9.00;71.90
68485;DHT22;55472;50.060;21.960;2024-03-25T08:09:44;9.30;70.70
68485;DHT22;55472;50.060;21.960;2024-03-25T08:12:10;9.70;70.90
68485;DHT22;55472;50.060;21.960;2024-03-25T08:14:36;10.10;69.10
68485;DHT22;55472;50.060;21.960;2024-03-25T08:17:02;10.50;68.70
68485;DHT22;55472;50.060;21.960;2024-03-25T08:19:29;10.80;65.50
68485;DHT22;55472;50.060;21.960;2024-03-25T08:21:57;11.20;65.60
68485;DHT22;55472;50.060;21.960;2024-03-25T08:24:23;11.70;63.20
68485;DHT22;55472;50.060;21.960;2024-03-25T08:26:49;12.00;61.80
68485;DHT22;55472;50.060;21.960;2024-03-25T08:29:16;12.60;61.70
68485;DHT22;55472;50.060;21.960;2024-03-25T08:31:42;13.50;61.90
68485;DHT22;55472;50.060;21.960;2024-03-25T08:34:08;14.40;56.60
68485;DHT22;55472;50.060;21.960;2024-03-25T08:36:34;16.10;51.40
68485;DHT22;55472;50.060;21.960;2024-03-25T08:39:00;17.80;47.90
68485;DHT22;55472;50.060;21.960;2024-03-25T08:41:26;19.60;43.70
68485;DHT22;55472;50.060;21.960;2024-03-25T08:43:52;21.50;41.60
68485;DHT22;55472;50.060;21.960;2024-03-25T08:46:18;23.10;39.50
68485;DHT22;55472;50.060;21.960;2024-03-25T08:48:44;24.90;36.90
68485;DHT22;55472;50.060;21.960;2024-03-25T08:51:10;26.10;33.30
68485;DHT22;55472;50.060;21.960;2024-03-25T08:53:37;26.90;31.80
68485;DHT22;55472;50.060;21.960;2024-03-25T08:56:03;25.40;32.80
68485;DHT22;55472;50.060;21.960;2024-03-25T08:58:30;25.70;32.90
68485;DHT22;55472;50.060;21.960;2024-03-25T09:00:56;23.80;33.60
68485;DHT22;55472;50.060;21.960;2024-03-25T09:03:23;23.10;35.30
68485;DHT22;55472;50.060;21.960;2024-03-25T09:05:49;23.60;35.10
68485;DHT22;55472;50.060;21.960;2024-03-25T09:08:15;22.60;34.40
68485;DHT22;55472;50.060;21.960;2024-03-25T09:10:43;20.80;36.40
68485;DHT22;55472;50.060;21.960;2024-03-25T09:13:29;19.00;38.60
68485;DHT22;55472;50.060;21.960;2024-03-25T09:15:56;17.30;41.70
68485;DHT22;55472;50.060;21.960;2024-03-25T09:18:23;16.10;44.40
68485;DHT22;55472;50.060;21.960;2024-03-25T09:20:49;15.20;46.20
68485;DHT22;55472;50.060;21.960;2024-03-25T09:23:15;14.40;47.10
68485;DHT22;55472;50.060;21.960;2024-03-25T09:25:51;14.40;48.80
68485;DHT22;55472;50.060;21.960;2024-03-25T09:28:18;14.40;47.50
68485;DHT22;55472;50.060;21.960;2024-03-25T09:30:44;13.90;48.20
68485;DHT22;55472;50.060;21.960;2024-03-25T09:33:11;13.40;49.70
68485;DHT22;55472;50.060;21.960;2024-03-25T09:35:37;13.20;49.50
68485;DHT22;55472;50.060;21.960;2024-03-25T09:38:03;13.10;51.70
68485;DHT22;55472;50.060;21.960;2024-03-25T09:40:29;13.10;51.50
68485;DHT22;55472;50.060;21.960;2024-03-25T09:42:56;13.00;52.20
68485;DHT22;55472;50.060;21.960;2024-03-25T09:45:27;12.80;53.10
68485;DHT22;55472;50.060;21.960;2024-03-25T09:47:56;12.60;53.30
68485;DHT22;55472;50.060;21.960;2024-03-25T09:50:22;12.30;54.50
68485;DHT22;55472;50.060;21.960;2024-03-25T09:52:49;12.00;54.40
68485;DHT22;55472;50.060;21.960;2024-03-25T09:55:16;11.70;54.50
68485;DHT22;55472;50.060;21.960;2024-03-25T09:57:43;11.50;55.00
68485;DHT22;55472;50.060;21.960;2024-03-25T10:00:11;11.30;56.80
68485;DHT22;55472;50.060;21.960;2024-03-25T10:02:39;11.40;56.40
68485;DHT22;55472;50.060;21.960;2024-03-25T10:05:06;11.40;54.30
68485;DHT22;55472;50.060;21.960;2024-03-25T10:07:33;11.30;55.00
68485;DHT22;55472;50.060;21.960;2024-03-25T10:10:04;11.30;55.30
68485;DHT22;55472;50.060;21.960;2024-03-25T10:12:31;11.20;54.50
68485;DHT22;55472;50.060;21.960;2024-03-25T10:14:57;11.10;55.10
68485;DHT22;55472;50.060;21.960;2024-03-25T10:17:24;11.00;55.10
68485;DHT22;55472;50.060;21.960;2024-03-25T10:19:53;10.80;55.10
68485;DHT22;55472;50.060;21.960;2024-03-25T10:22:19;10.60;56.10
68485;DHT22;55472;50.060;21.960;2024-03-25T10:24:46;10.50;57.50
68485;DHT22;55472;50.060;21.960;2024-03-25T10:27:22;10.30;58.20
68485;DHT22;55472;50.060;21.960;2024-03-25T10:29:53;10.20;59.20
68485;DHT22;55472;50.060;21.960;2024-03-25T10:32:23;10.00;59.30
68485;DHT22;55472;50.060;21.960;2024-03-25T10:34:55;9.90;59.40
68485;DHT22;55472;50.060;21.960;2024-03-25T10:37:21;9.70;59.60
68485;DHT22;55472;50.060;21.960;2024-03-25T10:39:52;9.60;60.00
68485;DHT22;55472;50.060;21.960;2024-03-25T10:42:21;9.50;60.00
68485;DHT22;55472;50.060;21.960;2024-03-25T10:44:48;9.30;60.50
68485;DHT22;55472;50.060;21.960;2024-03-25T10:47:28;9.10;61.30
68485;DHT22;55472;50.060;21.960;2024-03-25T10:49:57;9.00;61.30
68485;DHT22;55472;50.060;21.960;2024-03-25T10:52:26;8.80;63.00
68485;DHT22;55472;50.060;21.960;2024-03-25T10:54:53;8.70;65.10
68485;DHT22;55472;50.060;21.960;2024-03-25T10:57:20;8.70;67.60
68485;DHT22;55472;50.060;21.960;2024-03-25T10:59:47;8.50;70.90
68485;DHT22;55472;50.060;21.960;2024-03-25T11:02:15;8.40;72.60
68485;DHT22;55472;50.060;21.960;2024-03-25T11:04:44;8.30;73.90
68485;DHT22;55472;50.060;21.960;2024-03-25T11:07:12;8.30;74.90
68485;DHT22;55472;50.060;21.960;2024-03-25T11:09:39;8.30;76.50
68485;DHT22;55472;50.060;21.960;2024-03-25T11:12:07;8.40;77.20
68485;DHT22;55472;50.060;21.960;2024-03-25T11:14:36;8.50;76.20
68485;DHT22;55472;50.060;21.960;2024-03-25T11:17:02;8.60;75.60
68485;DHT22;55472;50.060;21.960;2024-03-25T11:19:30;8.80;75.30
68485;DHT22;55472;50.060;21.960;2024-03-25T11:22:09;9.10;75.00
68485;DHT22;55472;50.060;21.960;2024-03-25T11:24:37;9.40;74.70
68485;DHT22;55472;50.060;21.960;2024-03-25T11:27:07;9.70;73.90
68485;DHT22;55472;50.060;21.960;2024-03-25T11:29:36;10.00;70.80
68485;DHT22;55472;50.060;21.960;2024-03-25T11:32:04;10.30;70.60
68485;DHT22;55472;50.060;21.960;2024-03-25T11:34:31;10.70;69.50
68485;DHT22;55472;50.060;21.960;2024-03-25T11:36:58;11.00;68.30
68485;DHT22;55472;50.060;21.960;2024-03-25T11:39:24;11.40;66.20
68485;DHT22;55472;50.060;21.960;2024-03-25T11:41:54;11.60;62.10
68485;DHT22;55472;50.060;21.960;2024-03-25T11:44:21;11.70;61.60
68485;DHT22;55472;50.060;21.960;2024-03-25T11:46:51;11.60;61.90
68485;DHT22;55472;50.060;21.960;2024-03-25T11:49:21;11.50;61.70
68485;DHT22;55472;50.060;21.960;2024-03-25T11:51:47;11.40;62.10
68485;DHT22;55472;50.060;21.960;2024-03-25T11:54:13;11.40;63.00
68485;DHT22;55472;50.060;21.960;2024-03-25T11:56:40;11.50;63.50
68485;DHT22;55472;50.060;21.960;2024-03-25T11:59:09;11.70;63.30
68485;DHT22;55472;50.060;21.960;2024-03-25T12:01:37;11.80;62.20
68485;DHT22;55472;50.060;21.960;2024-03-25T12:04:18;11.90;61.40
68485;DHT22;55472;50.060;21.960;2024-03-25T12:06:45;12.00;61.40
68485;DHT22;55472;50.060;21.960;2024-03-25T12:09:11;12.00;61.90
68485;DHT22;55472;50.060;21.960;2024-03-25T12:11:56;12.00;62.70
68485;DHT22;55472;50.060;21.960;2024-03-25T12:14:24;12.10;62.50
68485;DHT22;55472;50.060;21.960;2024-03-25T12:16:53;12.30;61.90
68485;DHT22;55472;50.060;21.960;2024-03-25T12:19:20;12.50;62.40
68485;DHT22;55472;50.060;21.960;2024-03-25T12:21:47;12.60;61.50
68485;DHT22;55472;50.060;21.960;2024-03-25T12:24:15;12.70;58.80
68485;DHT22;55472;50.060;21.960;2024-03-25T12:26:41;12.50;59.50
68485;DHT22;55472;50.060;21.960;2024-03-25T12:29:08;12.40;58.10
68485;DHT22;55472;50.060;21.960;2024-03-25T12:31:34;12.20;59.30
68485;DHT22;55472;50.060;21.960;2024-03-25T12:34:00;12.00;60.90
68485;DHT22;55472;50.060;21.960;2024-03-25T12:36:26;11.80;62.50
68485;DHT22;55472;50.060;21.960;2024-03-25T12:38:56;11.60;64.20
68485;DHT22;55472;50.060;21.960;2024-03-25T12:41:23;11.50;65.50
68485;DHT22;55472;50.060;21.960;2024-03-25T12:43:51;11.50;65.40
68485;DHT22;55472;50.060;21.960;2024-03-25T12:46:17;11.60;65.10
68485;DHT22;55472;50.060;21.960;2024-03-25T12:48:44;11.70;65.40
68485;DHT22;55472;50.060;21.960;2024-03-25T12:51:14;11.70;64.10
68485;DHT22;55472;50.060;21.960;2024-03-25T12:53:41;11.90;63.40
68485;DHT22;55472;50.060;21.960;2024-03-25T12:56:07;12.10;62.90
68485;DHT22;55472;50.060;21.960;2024-03-25T12:58:34;12.30;61.90
68485;DHT22;55472;50.060;21.960;2024-03-25T13:01:00;12.40;62.40
68485;DHT22;55472;50.060;21.960;2024-03-25T13:03:27;12.50;61.10
68485;DHT22;55472;50.060;21.960;2024-03-25T13:05:53;12.50;59.60
68485;DHT22;55472;50.060;21.960;2024-03-25T13:08:20;12.60;60.50
68485;DHT22;55472;50.060;21.960;2024-03-25T13:10:46;12.50;60.10
68485;DHT22;55472;50.060;21.960;2024-03-25T13:13:13;12.50;60.60
68485;DHT22;55472;50.060;21.960;2024-03-25T13:15:39;12.50;60.90
68485;DHT22;55472;50.060;21.960;2024-03-25T13:18:06;12.40;61.70
68485;DHT22;55472;50.060;21.960;2024-03-25T13:20:32;12.30;59.70
68485;DHT22;55472;50.060;21.960;2024-03-25T13:22:58;12.10;60.60
68485;DHT22;55472;50.060;21.960;2024-03-25T13:25:26;12.00;61.20
68485;DHT22;55472;50.060;21.960;2024-03-25T13:27:55;11.90;62.50
68485;DHT22;55472;50.060;21.960;2024-03-25T13:30:21;11.90;62.10
68485;DHT22;55472;50.060;21.960;2024-03-25T13:32:50;12.00;62.10
68485;DHT22;55472;50.060;21.960;2024-03-25T13:35:16;12.20;60.50
68485;DHT22;55472;50.060;21.960;2024-03-25T13:37:44;12.30;58.80
68485;DHT22;55472;50.060;21.960;2024-03-25T13:40:10;12.40;58.50
68485;DHT22;55472;50.060;21.960;2024-03-25T13:42:37;12.40;59.70
68485;DHT22;55472;50.060;21.960;2024-03-25T13:45:04;12.40;58.80
68485;DHT22;55472;50.060;21.960;2024-03-25T13:47:31;12.40;59.90
68485;DHT22;55472;50.060;21.960;2024-03-25T13:50:01;12.40;60.00
68485;DHT22;55472;50.060;21.960;2024-03-25T13:52:30;12.40;59.60
68485;DHT22;55472;50.060;21.960;2024-03-25T13:54:56;12.30;58.90
68485;DHT22;55472;50.060;21.960;2024-03-25T13:57:22;12.10;59.00
68485;DHT22;55472;50.060;21.960;2024-03-25T13:59:50;12.00;59.70
68485;DHT22;55472;50.060;21.960;2024-03-25T14:02:16;11.80;60.60
68485;DHT22;55472;50.060;21.960;2024-03-25T14:04:43;11.60;61.70
68485;DHT22;55472;50.060;21.960;2024-03-25T14:07:09;11.50;62.50
68485;DHT22;55472;50.060;21.960;2024-03-25T14:09:35;11.30;62.50
68485;DHT22;55472;50.060;21.960;2024-03-25T14:12:02;11.10;63.10
68485;DHT22;55472;50.060;21.960;2024-03-25T14:14:29;11.00;63.60
68485;DHT22;55472;50.060;21.960;2024-03-25T14:16:55;10.80;63.90
68485;DHT22;55472;50.060;21.960;2024-03-25T14:19:21;10.60;63.10
68485;DHT22;55472;50.060;21.960;2024-03-25T14:21:49;10.40;64.30
68485;DHT22;55472;50.060;21.960;2024-03-25T14:24:16;10.20;67.10
68485;DHT22;55472;50.060;21.960;2024-03-25T14:26:42;10.00;68.50
68485;DHT22;55472;50.060;21.960;2024-03-25T14:29:08;9.80;70.30
68485;DHT22;55472;50.060;21.960;2024-03-25T14:31:35;9.60;71.50
68485;DHT22;55472;50.060;21.960;2024-03-25T14:34:01;9.50;72.90
68485;DHT22;55472;50.060;21.960;2024-03-25T14:36:27;9.40;75.40
68485;DHT22;55472;50.060;21.960;2024-03-25T14:38:53;9.40;77.00
68485;DHT22;55472;50.060;21.960;2024-03-25T14:41:21;9.50;78.40
68485;DHT22;55472;50.060;21.960;2024-03-25T14:43:47;9.50;79.10
68485;DHT22;55472;50.060;21.960;2024-03-25T14:46:14;9.60;78.50
68485;DHT22;55472;50.060;21.960;2024-03-25T14:48:41;9.50;78.20
68485;DHT22;55472;50.060;21.960;2024-03-25T14:51:07;9.40;78.60
68485;DHT22;55472;50.060;21.960;2024-03-25T14:53:33;9.30;79.50
68485;DHT22;55472;50.060;21.960;2024-03-25T14:56:00;9.30;79.60
68485;DHT22;55472;50.060;21.960;2024-03-25T14:58:26;9.10;80.20
68485;DHT22;55472;50.060;21.960;2024-03-25T15:00:53;9.00;80.00
68485;DHT22;55472;50.060;21.960;2024-03-25T15:03:19;8.90;80.70
68485;DHT22;55472;50.060;21.960;2024-03-25T15:05:46;8.80;79.50
68485;DHT22;55472;50.060;21.960;2024-03-25T15:08:12;8.70;79.20
68485;DHT22;55472;50.060;21.960;2024-03-25T15:10:38;8.60;79.80
68485;DHT22;55472;50.060;21.960;2024-03-25T15:13:07;8.50;79.30
68485;DHT22;55472;50.060;21.960;2024-03-25T15:15:41;8.40;80.00
68485;DHT22;55472;50.060;21.960;2024-03-25T15:18:09;8.30;81.10
68485;DHT22;55472;50.060;21.960;2024-03-25T15:20:36;8.30;83.20
68485;DHT22;55472;50.060;21.960;2024-03-25T15:23:02;8.20;86.50
68485;DHT22;55472;50.060;21.960;2024-03-25T15:25:29;8.20;87.40
68485;DHT22;55472;50.060;21.960;2024-03-25T15:27:55;8.20;87.50
68485;DHT22;55472;50.060;21.960;2024-03-25T15:30:21;8.30;88.30
68485;DHT22;55472;50.060;21.960;2024-03-25T15:32:47;8.40;88.20
68485;DHT22;55472;50.060;21.960;2024-03-25T15:35:14;8.50;87.30
68485;DHT22;55472;50.060;21.960;2024-03-25T15:37:40;8.50;84.50